createdAt,value
2018-04-29T00:01:45.248Z,12.53
2018-04-29T00:04:13.629Z,12.57
2018-04-29T00:06:42.025Z,12.52
2018-04-29T00:09:11.057Z,12.55
2018-04-29T00:11:40.228Z,12.51
2018-04-29T00:14:08.519Z,12.53
2018-04-29T00:16:36.809Z,12.47
2018-04-29T00:19:05.876Z,12.48
2018-04-29T00:21:34.170Z,12.52
2018-04-29T00:24:02.472Z,12.52
2018-04-29T00:26:31.573Z,12.50
2018-04-29T00:29:00.639Z,12.46
2018-04-29T00:31:29.118Z,12.40
2018-04-29T00:33:57.703Z,12.41
2018-04-29T00:36:26.404Z,12.33
2018-04-29T00:38:55.451Z,12.24
2018-04-29T00:41:23.739Z,12.12
2018-04-29T00:43:52.111Z,12.06
2018-04-29T00:46:20.501Z,11.99
2018-04-29T00:48:48.796Z,11.91
2018-04-29T00:51:17.104Z,11.92
2018-04-29T00:53:46.281Z,11.86
2018-04-29T00:56:14.568Z,11.74
2018-04-29T00:58:42.850Z,11.63
2018-04-29T01:01:12.014Z,11.60
2018-04-29T01:03:40.706Z,11.51
2018-04-29T01:06:09.072Z,11.41
2018-04-29T01:08:37.615Z,11.39
2018-04-29T01:11:06.663Z,11.32
2018-04-29T01:13:35.039Z,11.26
2018-04-29T01:16:04.242Z,11.29
2018-04-29T01:18:32.557Z,11.30
2018-04-29T01:21:03.115Z,11.32
2018-04-29T01:23:31.403Z,11.25
2018-04-29T01:25:59.673Z,11.20
2018-04-29T01:28:28.433Z,11.15
2018-04-29T01:30:57.480Z,11.12
2018-04-29T01:33:25.774Z,11.12
2018-04-29T01:35:54.591Z,11.13
2018-04-29T01:38:24.390Z,11.14
2018-04-29T01:40:53.259Z,11.16
2018-04-29T01:43:22.044Z,11.16
2018-04-29T01:45:50.339Z,11.16
2018-04-29T01:48:19.002Z,11.20
2018-04-29T01:50:47.371Z,11.14
2018-04-29T01:53:15.642Z,11.10
2018-04-29T01:55:43.950Z,11.09
2018-04-29T01:58:12.890Z,11.04
2018-04-29T02:00:41.927Z,10.96
2018-04-29T02:03:10.247Z,10.90
2018-04-29T02:05:38.551Z,10.82
2018-04-29T02:08:06.830Z,10.66
2018-04-29T02:10:35.160Z,10.66
2018-04-29T02:13:03.467Z,10.66
2018-04-29T02:15:32.498Z,10.67
2018-04-29T02:18:01.251Z,10.68
2018-04-29T02:20:30.407Z,10.63
2018-04-29T02:22:58.712Z,10.61
2018-04-29T02:25:27.078Z,10.61
2018-04-29T02:27:55.341Z,10.61
2018-04-29T02:30:23.658Z,10.57
2018-04-29T02:32:51.964Z,10.54
2018-04-29T02:35:20.259Z,10.53
2018-04-29T02:37:48.707Z,10.48
2018-04-29T02:40:18.201Z,10.45
2018-04-29T02:42:46.478Z,10.40
2018-04-29T02:45:14.769Z,10.34
2018-04-29T02:47:43.827Z,10.32
2018-04-29T02:50:12.505Z,10.41
2018-04-29T02:52:41.426Z,10.40
2018-04-29T02:55:10.444Z,10.37
2018-04-29T02:57:39.823Z,10.39
2018-04-29T03:00:08.459Z,10.33
2018-04-29T03:02:36.733Z,10.30
2018-04-29T03:05:05.025Z,10.31
2018-04-29T03:07:33.622Z,10.34
2018-04-29T03:10:01.909Z,10.37
2018-04-29T03:12:30.540Z,10.38
2018-04-29T03:14:59.661Z,10.33
2018-04-29T03:17:28.472Z,10.34
2018-04-29T03:19:56.846Z,10.39
2018-04-29T03:22:25.208Z,10.43
2018-04-29T03:24:53.627Z,10.44
2018-04-29T03:27:22.831Z,10.40
2018-04-29T03:29:51.621Z,10.36
2018-04-29T03:32:20.331Z,10.28
2018-04-29T03:34:49.499Z,10.22
2018-04-29T03:37:18.261Z,10.15
2018-04-29T03:39:46.543Z,10.10
2018-04-29T03:42:14.826Z,10.08
2018-04-29T03:44:43.309Z,10.10
2018-04-29T03:47:11.630Z,10.09
2018-04-29T03:49:39.920Z,10.00
2018-04-29T03:52:08.998Z,9.98
2018-04-29T03:54:37.302Z,9.97
2018-04-29T03:57:24.085Z,10.03
2018-04-29T04:00:10.803Z,10.05
2018-04-29T04:05:48.794Z,10.11
2018-04-29T04:08:17.182Z,10.12
2018-04-29T04:10:45.884Z,10.17
2018-04-29T04:13:15.106Z,10.18
2018-04-29T04:15:44.166Z,10.21
2018-04-29T04:18:12.450Z,10.19
2018-04-29T04:20:41.435Z,10.22
2018-04-29T04:23:10.357Z,10.19
2018-04-29T04:25:38.640Z,10.20
2018-04-29T04:28:07.701Z,10.23
2018-04-29T04:30:35.987Z,10.25
2018-04-29T04:33:04.868Z,10.28
2018-04-29T04:35:33.155Z,10.30
2018-04-29T04:38:01.518Z,10.32
2018-04-29T04:40:29.818Z,10.36
2018-04-29T04:42:58.101Z,10.33
2018-04-29T04:45:26.408Z,10.37
2018-04-29T04:47:54.702Z,10.47
2018-04-29T04:50:22.975Z,10.53
2018-04-29T04:52:51.274Z,10.62
2018-04-29T04:55:19.621Z,10.66
2018-04-29T04:57:48.670Z,10.74
2018-04-29T05:00:16.977Z,10.80
2018-04-29T05:02:45.596Z,10.89
2018-04-29T05:05:14.443Z,10.97
2018-04-29T05:07:43.007Z,11.13
2018-04-29T05:10:11.304Z,11.13
2018-04-29T05:12:39.584Z,11.16
2018-04-29T05:15:08.436Z,11.19
2018-04-29T05:17:36.710Z,10.97
2018-04-29T05:20:04.988Z,10.79
2018-04-29T05:22:33.297Z,10.91
2018-04-29T05:25:01.909Z,10.99
2018-04-29T05:27:30.951Z,11.05
2018-04-29T05:29:59.259Z,11.15
2018-04-29T05:32:28.246Z,11.27
2018-04-29T05:34:56.628Z,11.50
2018-04-29T05:37:24.921Z,11.69
2018-04-29T05:39:53.265Z,11.88
2018-04-29T05:42:21.542Z,11.98
2018-04-29T05:44:50.635Z,12.16
2018-04-29T05:47:18.948Z,12.22
2018-04-29T05:49:47.337Z,12.26
2018-04-29T05:52:15.591Z,12.36
2018-04-29T05:54:44.423Z,12.31
2018-04-29T05:57:14.423Z,12.21
2018-04-29T05:59:43.199Z,12.17
2018-04-29T06:02:11.838Z,12.23
2018-04-29T06:04:40.122Z,12.32
2018-04-29T06:07:08.399Z,12.48
2018-04-29T06:09:36.711Z,12.77
2018-04-29T06:12:05.017Z,12.83
2018-04-29T06:14:33.310Z,12.92
2018-04-29T06:17:02.948Z,13.04
2018-04-29T06:19:31.355Z,13.10
2018-04-29T06:22:00.019Z,13.18
2018-04-29T06:24:29.381Z,13.10
2018-04-29T06:26:58.443Z,13.14
2018-04-29T06:29:26.753Z,13.13
2018-04-29T06:31:55.842Z,13.09
2018-04-29T06:34:24.511Z,13.10
2018-04-29T06:36:53.391Z,13.03
2018-04-29T06:39:21.702Z,13.05
2018-04-29T06:41:50.754Z,13.30
2018-04-29T06:44:19.038Z,13.31
2018-04-29T06:46:47.472Z,13.35
2018-04-29T06:49:16.252Z,13.44
2018-04-29T06:51:45.612Z,13.53
2018-04-29T06:54:13.992Z,13.62
2018-04-29T06:56:42.860Z,13.59
2018-04-29T06:59:11.155Z,13.92
2018-04-29T07:01:39.452Z,13.88
2018-04-29T07:04:07.801Z,14.04
2018-04-29T07:06:36.126Z,13.96
2018-04-29T07:09:04.429Z,14.03
2018-04-29T07:11:33.692Z,13.88
2018-04-29T07:14:02.468Z,13.75
2018-04-29T07:16:30.752Z,13.80
2018-04-29T07:18:59.040Z,13.75
2018-04-29T07:21:27.391Z,13.77
2018-04-29T07:23:55.658Z,13.66
2018-04-29T07:26:24.251Z,13.81
2018-04-29T07:28:52.534Z,13.80
2018-04-29T07:31:20.923Z,13.98
2018-04-29T07:33:49.234Z,14.10
2018-04-29T07:36:17.526Z,14.06
2018-04-29T07:38:46.563Z,14.01
2018-04-29T07:41:15.168Z,14.17
2018-04-29T07:43:43.664Z,14.19
2018-04-29T07:46:12.519Z,14.26
2018-04-29T07:48:40.829Z,14.61
2018-04-29T07:51:09.390Z,14.45
2018-04-29T07:53:37.697Z,14.39
2018-04-29T07:56:06.958Z,14.60
2018-04-29T07:58:35.439Z,14.86
2018-04-29T08:01:04.278Z,15.02
2018-04-29T08:03:32.551Z,15.12
2018-04-29T08:06:00.864Z,15.09
2018-04-29T08:08:29.166Z,15.13
2018-04-29T08:10:57.462Z,15.15
2018-04-29T08:13:25.826Z,15.25
2018-04-29T08:15:54.103Z,15.28
2018-04-29T08:18:22.391Z,15.33
2018-04-29T08:20:50.864Z,15.55
2018-04-29T08:23:19.166Z,15.48
2018-04-29T08:25:47.438Z,15.56
2018-04-29T08:28:15.722Z,15.63
2018-04-29T08:30:44.013Z,15.66
2018-04-29T08:33:12.283Z,15.67
2018-04-29T08:35:40.638Z,15.68
2018-04-29T08:38:09.022Z,15.80
2018-04-29T08:40:37.306Z,15.87
2018-04-29T08:43:05.769Z,15.72
2018-04-29T08:45:34.058Z,15.53
2018-04-29T08:48:02.722Z,15.74
2018-04-29T08:50:32.043Z,15.64
2018-04-29T08:53:00.313Z,15.65
2018-04-29T08:55:28.586Z,15.66
2018-04-29T08:57:56.879Z,15.65
2018-04-29T09:00:25.175Z,15.57
2018-04-29T09:02:53.844Z,15.73
2018-04-29T09:05:22.319Z,15.75
2018-04-29T09:07:50.686Z,15.80
2018-04-29T09:10:19.186Z,15.87
2018-04-29T09:12:47.654Z,16.00
2018-04-29T09:15:16.595Z,15.93
2018-04-29T09:17:44.956Z,16.05
2018-04-29T09:20:13.332Z,16.16
2018-04-29T09:22:42.248Z,16.13
2018-04-29T09:25:10.517Z,16.22
2018-04-29T09:27:38.792Z,16.30
2018-04-29T09:30:07.311Z,16.26
2018-04-29T09:32:36.460Z,16.38
2018-04-29T09:35:04.758Z,16.31
2018-04-29T09:37:33.067Z,16.15
2018-04-29T09:40:02.106Z,16.26
2018-04-29T09:42:31.138Z,16.48
2018-04-29T09:44:59.742Z,16.76
2018-04-29T09:47:28.812Z,16.97
2018-04-29T09:49:57.099Z,16.91
2018-04-29T09:52:26.155Z,17.00
2018-04-29T09:54:54.614Z,16.85
2018-04-29T09:57:22.885Z,16.87
2018-04-29T09:59:51.152Z,17.13
2018-04-29T10:02:24.350Z,17.28
2018-04-29T10:04:52.865Z,17.43
2018-04-29T10:07:21.158Z,17.73
2018-04-29T10:09:49.452Z,17.87
2018-04-29T10:12:17.739Z,17.80
2018-04-29T10:14:46.363Z,17.59
2018-04-29T10:17:14.667Z,17.44
2018-04-29T10:19:43.744Z,17.32
2018-04-29T10:22:12.643Z,17.51
2018-04-29T10:24:40.991Z,17.62
2018-04-29T10:27:09.988Z,17.79
2018-04-29T10:29:39.512Z,18.09
2018-04-29T10:32:08.901Z,18.18
2018-04-29T10:34:37.946Z,18.15
2018-04-29T10:37:06.236Z,17.95
2018-04-29T10:39:34.517Z,17.97
2018-04-29T10:42:03.476Z,17.84
2018-04-29T10:44:32.380Z,18.37
2018-04-29T10:47:00.682Z,18.30
2018-04-29T10:49:28.974Z,18.35
2018-04-29T10:51:58.738Z,18.38
2018-04-29T10:54:28.564Z,18.26
2018-04-29T10:56:57.554Z,18.44
2018-04-29T10:59:25.831Z,18.71
2018-04-29T11:01:54.136Z,18.66
2018-04-29T11:04:24.016Z,18.79
2018-04-29T11:06:52.407Z,19.18
2018-04-29T11:09:20.967Z,19.36
2018-04-29T11:11:49.245Z,19.67
2018-04-29T11:14:17.666Z,19.96
2018-04-29T11:16:46.013Z,20.27
2018-04-29T11:19:14.293Z,20.35
2018-04-29T11:21:42.811Z,20.51
2018-04-29T11:24:11.099Z,20.34
2018-04-29T11:26:39.430Z,20.54
2018-04-29T11:29:08.517Z,20.63
2018-04-29T11:31:38.138Z,20.60
2018-04-29T11:34:06.450Z,20.21
2018-04-29T11:36:35.357Z,20.41
2018-04-29T11:39:03.636Z,20.48
2018-04-29T11:41:35.035Z,21.02
2018-04-29T11:44:04.047Z,20.98
2018-04-29T11:46:32.342Z,21.04
2018-04-29T11:49:00.651Z,20.88
2018-04-29T11:51:29.791Z,20.48
2018-04-29T11:53:58.082Z,19.93
2018-04-29T11:56:26.802Z,19.60
2018-04-29T11:58:56.251Z,19.57
2018-04-29T12:01:24.648Z,19.35
2018-04-29T12:03:52.977Z,19.74
2018-04-29T12:06:22.031Z,19.49
2018-04-29T12:08:50.347Z,19.63
2018-04-29T12:11:19.406Z,19.44
2018-04-29T12:13:48.398Z,19.03
2018-04-29T12:16:17.340Z,19.33
2018-04-29T12:18:46.398Z,19.16
2018-04-29T12:21:14.760Z,19.17
2018-04-29T12:23:43.363Z,19.27
2018-04-29T12:26:12.471Z,19.25
2018-04-29T12:28:40.771Z,19.48
2018-04-29T12:31:09.827Z,19.45
2018-04-29T12:33:38.292Z,19.71
2018-04-29T12:36:06.482Z,19.33
2018-04-29T12:38:35.174Z,18.99
2018-04-29T12:41:03.729Z,18.98
2018-04-29T12:43:32.023Z,18.84
2018-04-29T12:46:00.560Z,18.91
2018-04-29T12:48:29.897Z,18.78
2018-04-29T12:50:58.178Z,19.00
2018-04-29T12:53:27.123Z,19.25
2018-04-29T12:55:56.270Z,20.06
2018-04-29T12:58:25.797Z,21.39
2018-04-29T13:00:54.069Z,21.39
2018-04-29T13:03:22.992Z,21.15
2018-04-29T13:05:51.527Z,20.46
2018-04-29T13:08:19.795Z,20.12
2018-04-29T13:10:48.095Z,20.31
2018-04-29T13:13:16.380Z,19.99
2018-04-29T13:15:44.744Z,19.72
2018-04-29T13:18:13.058Z,19.97
2018-04-29T13:20:41.352Z,19.87
2018-04-29T13:23:10.510Z,20.29
2018-04-29T13:25:38.876Z,21.01
2018-04-29T13:28:07.166Z,20.81
2018-04-29T13:30:35.518Z,20.57
2018-04-29T13:33:03.844Z,20.33
2018-04-29T13:35:32.129Z,20.09
2018-04-29T13:38:00.890Z,19.70
2018-04-29T13:40:29.260Z,19.66
2018-04-29T13:42:57.740Z,19.49
2018-04-29T13:45:26.037Z,19.33
2018-04-29T13:47:54.769Z,18.80
2018-04-29T13:50:23.810Z,18.85
2018-04-29T13:52:52.410Z,19.12
2018-04-29T13:55:20.748Z,21.08
2018-04-29T13:57:49.812Z,22.61
2018-04-29T14:00:19.006Z,21.82
2018-04-29T14:02:47.999Z,21.43
2018-04-29T14:05:16.282Z,20.51
2018-04-29T14:07:45.367Z,20.63
2018-04-29T14:10:13.683Z,20.27
2018-04-29T14:12:42.717Z,20.41
2018-04-29T14:15:11.286Z,20.58
2018-04-29T14:17:40.482Z,21.43
2018-04-29T14:20:09.186Z,21.68
2018-04-29T14:22:37.562Z,21.93
2018-04-29T14:25:05.873Z,23.11
2018-04-29T14:27:34.798Z,24.26
2018-04-29T14:30:04.010Z,24.74
2018-04-29T14:32:32.419Z,25.34
2018-04-29T14:35:00.813Z,25.61
2018-04-29T14:37:29.301Z,25.03
2018-04-29T14:39:57.668Z,25.68
2018-04-29T14:42:25.950Z,25.35
2018-04-29T14:44:54.263Z,24.66
2018-04-29T14:47:24.255Z,24.20
2018-04-29T14:49:53.107Z,23.90
2018-04-29T14:52:22.071Z,24.16
2018-04-29T14:54:51.661Z,24.68
2018-04-29T14:57:20.390Z,24.95
2018-04-29T14:59:48.890Z,24.63
2018-04-29T15:02:17.190Z,23.52
2018-04-29T15:04:45.479Z,23.37
2018-04-29T15:07:14.439Z,21.88
2018-04-29T15:09:42.743Z,22.57
2018-04-29T15:12:11.753Z,22.44
2018-04-29T15:14:40.922Z,22.18
2018-04-29T15:17:09.933Z,23.34
2018-04-29T15:19:50.271Z,23.70
2018-04-29T15:22:18.551Z,23.36
2018-04-29T15:24:46.889Z,22.50
2018-04-29T15:27:15.156Z,21.50
2018-04-29T15:29:44.233Z,22.31
2018-04-29T15:32:12.574Z,23.23
2018-04-29T15:34:40.850Z,23.92
2018-04-29T15:37:09.138Z,23.42
2018-04-29T15:39:37.626Z,23.50
2018-04-29T15:42:05.923Z,23.37
2018-04-29T15:44:34.213Z,22.46
2018-04-29T15:47:03.262Z,22.74
2018-04-29T15:49:31.574Z,22.33
2018-04-29T15:52:00.027Z,22.65
2018-04-29T15:54:28.422Z,22.44
2018-04-29T15:56:57.611Z,22.75
2018-04-29T15:59:26.079Z,23.20
2018-04-29T16:01:54.468Z,23.46
2018-04-29T16:04:22.755Z,22.62
2018-04-29T16:06:51.090Z,21.49
2018-04-29T16:09:19.418Z,20.87
2018-04-29T16:11:47.722Z,20.08
2018-04-29T16:14:17.439Z,21.72
2018-04-29T16:16:46.490Z,21.62
2018-04-29T16:19:14.873Z,21.37
2018-04-29T16:21:43.241Z,20.75
2018-04-29T16:24:11.616Z,20.20
2018-04-29T16:26:39.911Z,19.10
2018-04-29T16:29:08.675Z,18.59
2018-04-29T16:31:36.962Z,17.99
2018-04-29T16:34:05.261Z,17.83
2018-04-29T16:36:34.181Z,17.67
2018-04-29T16:39:03.338Z,18.01
2018-04-29T16:41:31.625Z,18.57
2018-04-29T16:44:00.027Z,18.81
2018-04-29T16:46:29.198Z,18.69
2018-04-29T16:48:57.497Z,18.54
2018-04-29T16:51:26.506Z,18.46
2018-04-29T16:53:54.826Z,18.37
2018-04-29T16:56:23.114Z,17.85
2018-04-29T16:58:51.386Z,18.42
2018-04-29T17:01:19.790Z,18.21
2018-04-29T17:03:48.060Z,18.18
2018-04-29T17:06:16.368Z,17.53
2018-04-29T17:08:45.390Z,17.44
2018-04-29T17:11:14.439Z,17.21
2018-04-29T17:13:42.805Z,16.63
2018-04-29T17:16:11.116Z,16.42
2018-04-29T17:18:39.739Z,16.21
2018-04-29T17:21:08.062Z,16.17
2018-04-29T17:23:37.174Z,15.88
2018-04-29T17:26:06.017Z,15.88
2018-04-29T17:28:34.571Z,15.53
2018-04-29T17:31:03.655Z,15.46
2018-04-29T17:33:32.020Z,15.36
2018-04-29T17:36:00.560Z,15.12
2018-04-29T17:38:28.872Z,15.17
2018-04-29T17:40:57.647Z,15.22
2018-04-29T17:43:25.962Z,14.85
2018-04-29T17:45:54.301Z,14.80
2018-04-29T17:48:22.579Z,14.79
2018-04-29T17:50:50.874Z,14.70
2018-04-29T17:53:20.218Z,14.55
2018-04-29T17:55:49.308Z,14.52
2018-04-29T17:58:18.650Z,14.53
2018-04-29T18:00:46.993Z,14.42
2018-04-29T18:03:16.254Z,14.33
2018-04-29T18:05:45.174Z,14.18
2018-04-29T18:08:13.460Z,14.09
2018-04-29T18:10:42.556Z,13.95
2018-04-29T18:13:10.856Z,13.87
2018-04-29T18:15:40.109Z,13.87
2018-04-29T18:18:08.414Z,13.83
2018-04-29T18:20:36.703Z,13.83
2018-04-29T18:23:06.119Z,13.74
2018-04-29T18:25:34.398Z,13.62
2018-04-29T18:28:02.691Z,13.79
2018-04-29T18:30:30.991Z,13.70
2018-04-29T18:32:59.984Z,13.68
2018-04-29T18:35:29.788Z,13.61
2018-04-29T18:37:58.071Z,13.56
2018-04-29T18:40:27.361Z,13.57
2018-04-29T18:42:55.659Z,13.59
2018-04-29T18:45:23.958Z,13.62
2018-04-29T18:47:52.328Z,13.45
2018-04-29T18:50:21.733Z,13.54
2018-04-29T18:52:51.418Z,13.53
2018-04-29T18:55:21.568Z,13.43
2018-04-29T18:57:50.209Z,13.51
2018-04-29T19:00:18.591Z,13.44
2018-04-29T19:02:46.891Z,13.35
2018-04-29T19:05:15.203Z,13.43
2018-04-29T19:07:43.606Z,13.49
2018-04-29T19:10:11.875Z,13.49
2018-04-29T19:12:41.379Z,13.43
2018-04-29T19:15:10.457Z,13.28
2018-04-29T19:17:39.121Z,13.35
2018-04-29T19:20:07.411Z,13.26
2018-04-29T19:22:36.238Z,13.17
2018-04-29T19:25:05.386Z,13.27
2018-04-29T19:27:34.150Z,13.17
2018-04-29T19:30:02.563Z,13.12
2018-04-29T19:32:30.951Z,13.14
2018-04-29T19:35:00.695Z,13.19
2018-04-29T19:37:29.990Z,13.08
2018-04-29T19:39:58.338Z,12.97
2018-04-29T19:42:27.322Z,13.04
2018-04-29T19:44:55.628Z,12.93
2018-04-29T19:47:23.960Z,12.98
2018-04-29T19:49:52.258Z,12.93
2018-04-29T19:52:20.539Z,12.74
2018-04-29T19:54:48.871Z,12.89
2018-04-29T19:57:18.430Z,12.95
2018-04-29T19:59:46.728Z,12.92
2018-04-29T20:02:15.039Z,12.69
2018-04-29T20:04:44.132Z,12.83
2018-04-29T20:07:13.263Z,12.61
2018-04-29T20:09:41.699Z,12.59
2018-04-29T20:12:11.436Z,12.54
2018-04-29T20:14:39.717Z,12.48
2018-04-29T20:17:07.987Z,12.40
2018-04-29T20:19:36.322Z,12.40
2018-04-29T20:22:04.595Z,12.49
2018-04-29T20:24:33.403Z,12.39
2018-04-29T20:27:03.541Z,12.37
2018-04-29T20:29:32.952Z,12.39
2018-04-29T20:32:02.043Z,12.51
2018-04-29T20:34:31.195Z,12.40
2018-04-29T20:36:59.487Z,12.50
2018-04-29T20:39:27.859Z,12.57
2018-04-29T20:41:56.169Z,12.60
2018-04-29T20:44:25.238Z,12.58
2018-04-29T20:46:54.048Z,12.51
2018-04-29T20:49:22.838Z,12.58
2018-04-29T20:51:51.128Z,12.53
2018-04-29T20:54:20.281Z,12.49
2018-04-29T20:56:48.970Z,12.47
2018-04-29T20:59:17.411Z,12.44
2018-04-29T21:01:45.694Z,12.44
2018-04-29T21:04:14.826Z,12.43
2018-04-29T21:06:43.748Z,12.47
2018-04-29T21:09:12.050Z,12.51
2018-04-29T21:11:41.095Z,12.41
2018-04-29T21:14:09.380Z,12.51
2018-04-29T21:16:38.254Z,12.41
2018-04-29T21:19:06.581Z,12.39
2018-04-29T21:21:35.819Z,12.36
2018-04-29T21:24:04.100Z,12.22
2018-04-29T21:26:32.380Z,12.27
2018-04-29T21:29:00.792Z,12.34
2018-04-29T21:31:29.514Z,12.13
2018-04-29T21:33:57.890Z,12.18
2018-04-29T21:36:27.042Z,12.19
2018-04-29T21:38:55.409Z,12.10
2018-04-29T21:41:23.731Z,12.16
2018-04-29T21:43:52.045Z,12.12
2018-04-29T21:46:20.339Z,12.13
2018-04-29T21:48:49.300Z,12.14
2018-04-29T21:51:18.440Z,11.96
2018-04-29T21:53:46.766Z,11.87
2018-04-29T21:56:15.827Z,11.91
2018-04-29T21:58:44.151Z,11.86
2018-04-29T22:01:12.476Z,11.80
2018-04-29T22:03:40.855Z,11.77
2018-04-29T22:06:10.080Z,11.85
2018-04-29T22:08:38.391Z,11.82
2018-04-29T22:11:07.519Z,11.82
2018-04-29T22:13:35.800Z,11.81
2018-04-29T22:16:04.331Z,11.82
2018-04-29T22:18:33.727Z,11.64
2018-04-29T22:21:02.169Z,11.68
2018-04-29T22:23:30.450Z,11.80
2018-04-29T22:25:58.967Z,11.81
2018-04-29T22:28:28.042Z,11.74
2018-04-29T22:30:56.730Z,11.62
2018-04-29T22:33:25.010Z,11.73
2018-04-29T22:35:53.310Z,11.72
2018-04-29T22:38:22.320Z,11.66
2018-04-29T22:40:51.369Z,11.72
2018-04-29T22:43:19.940Z,11.80
2018-04-29T22:45:48.219Z,11.75
2018-04-29T22:48:17.134Z,11.74
2018-04-29T22:50:45.720Z,11.75
2018-04-29T22:53:14.044Z,11.70
2018-04-29T22:55:43.183Z,11.75
2018-04-29T22:58:12.153Z,11.80
2018-04-29T23:00:40.438Z,11.80
2018-04-29T23:03:08.759Z,11.76
2018-04-29T23:05:37.047Z,11.78
2018-04-29T23:08:05.329Z,11.80
2018-04-29T23:10:34.390Z,11.78
2018-04-29T23:13:03.174Z,11.82
2018-04-29T23:15:31.549Z,11.87
2018-04-29T23:17:59.838Z,11.85
2018-04-29T23:20:28.145Z,11.81
2018-04-29T23:22:56.455Z,11.81
2018-04-29T23:25:24.733Z,11.63
2018-04-29T23:27:53.018Z,11.58
2018-04-29T23:30:21.935Z,11.66
2018-04-29T23:32:50.530Z,11.72
2018-04-29T23:35:18.861Z,11.72
2018-04-29T23:37:47.891Z,11.65
2018-04-29T23:40:16.166Z,11.64
2018-04-29T23:42:44.440Z,11.68
2018-04-29T23:45:12.758Z,11.70
2018-04-29T23:47:43.157Z,11.60
2018-04-29T23:50:11.436Z,11.62
2018-04-29T23:52:39.710Z,11.56
2018-04-29T23:55:08.398Z,11.54
2018-04-29T23:57:36.676Z,11.61
